sensor_id;sensor_type;location;lat;lon;timestamp;temperature;humidity
51837;DHT22;38941;53.254;6.600;2022-07-24T00:00:29;16.60;99.10
51837;DHT22;38941;53.254;6.600;2022-07-24T00:02:29;16.50;99.10
51837;DHT22;38941;53.254;6.600;2022-07-24T00:04:30;16.50;99.10
51837;DHT22;38941;53.254;6.600;2022-07-24T00:06:31;16.50;99.20
51837;DHT22;38941;53.254;6.600;2022-07-24T00:08:32;16.50;99.30
51837;DHT22;38941;53.254;6.600;2022-07-24T00:10:33;16.50;99.30
51837;DHT22;38941;53.254;6.600;2022-07-24T00:12:33;16.50;99.50
51837;DHT22;38941;53.254;6.600;2022-07-24T00:14:34;16.40;99.50
51837;DHT22;38941;53.254;6.600;2022-07-24T00:16:35;16.40;99.50
51837;DHT22;38941;53.254;6.600;2022-07-24T00:18:36;16.40;99.60
51837;DHT22;38941;53.254;6.600;2022-07-24T00:20:36;16.40;99.60
51837;DHT22;38941;53.254;6.600;2022-07-24T00:22:38;16.40;99.70
51837;DHT22;38941;53.254;6.600;2022-07-24T00:24:39;16.40;99.80
51837;DHT22;38941;53.254;6.600;2022-07-24T00:26:39;16.40;99.90
51837;DHT22;38941;53.254;6.600;2022-07-24T00:28:40;16.40;99.90
51837;DHT22;38941;53.254;6.600;2022-07-24T00:30:41;16.30;99.90
51837;DHT22;38941;53.254;6.600;2022-07-24T00:32:42;16.30;99.90
51837;DHT22;38941;53.254;6.600;2022-07-24T00:34:42;16.30;99.90
51837;DHT22;38941;53.254;6.600;2022-07-24T00:36:43;16.30;99.90
51837;DHT22;38941;53.254;6.600;2022-07-24T00:38:44;16.30;99.90
51837;DHT22;38941;53.254;6.600;2022-07-24T00:40:45;16.20;99.90
51837;DHT22;38941;53.254;6.600;2022-07-24T00:42:45;16.20;99.90
51837;DHT22;38941;53.254;6.600;2022-07-24T00:44:46;16.20;99.90
51837;DHT22;38941;53.254;6.600;2022-07-24T00:46:47;16.20;99.90
51837;DHT22;38941;53.254;6.600;2022-07-24T00:48:48;16.20;99.90
51837;DHT22;38941;53.254;6.600;2022-07-24T00:50:49;16.10;99.90
51837;DHT22;38941;53.254;6.600;2022-07-24T00:52:49;16.10;99.90
51837;DHT22;38941;53.254;6.600;2022-07-24T00:54:50;16.10;99.90
51837;DHT22;38941;53.254;6.600;2022-07-24T00:56:53;16.00;99.90
51837;DHT22;38941;53.254;6.600;2022-07-24T00:58:54;16.00;99.90
51837;DHT22;38941;53.254;6.600;2022-07-24T01:00:55;16.00;99.90
51837;DHT22;38941;53.254;6.600;2022-07-24T01:02:56;16.00;99.90
51837;DHT22;38941;53.254;6.600;2022-07-24T01:04:57;16.00;99.90
51837;DHT22;38941;53.254;6.600;2022-07-24T01:06:58;16.00;99.90
51837;DHT22;38941;53.254;6.600;2022-07-24T01:08:59;15.90;99.90
51837;DHT22;38941;53.254;6.600;2022-07-24T01:11:04;15.90;99.90
51837;DHT22;38941;53.254;6.600;2022-07-24T01:13:05;15.90;99.90
51837;DHT22;38941;53.254;6.600;2022-07-24T01:15:08;15.90;99.90
51837;DHT22;38941;53.254;6.600;2022-07-24T01:17:10;15.90;99.90
51837;DHT22;38941;53.254;6.600;2022-07-24T01:19:11;15.80;99.90
51837;DHT22;38941;53.254;6.600;2022-07-24T01:21:12;15.80;99.90
51837;DHT22;38941;53.254;6.600;2022-07-24T01:23:13;15.80;99.90
51837;DHT22;38941;53.254;6.600;2022-07-24T01:25:15;15.80;99.90
51837;DHT22;38941;53.254;6.600;2022-07-24T01:27:15;15.80;99.90
51837;DHT22;38941;53.254;6.600;2022-07-24T01:29:16;15.80;99.90
51837;DHT22;38941;53.254;6.600;2022-07-24T01:31:17;15.80;99.90
51837;DHT22;38941;53.254;6.600;2022-07-24T01:33:18;15.70;99.90
51837;DHT22;38941;53.254;6.600;2022-07-24T01:35:20;15.70;99.90
51837;DHT22;38941;53.254;6.600;2022-07-24T01:37:20;15.70;99.90
51837;DHT22;38941;53.254;6.600;2022-07-24T01:39:21;15.70;99.90
51837;DHT22;38941;53.254;6.600;2022-07-24T01:41:22;15.70;99.90
51837;DHT22;38941;53.254;6.600;2022-07-24T01:43:22;15.70;99.90
51837;DHT22;38941;53.254;6.600;2022-07-24T01:45:23;15.70;99.90
51837;DHT22;38941;53.254;6.600;2022-07-24T01:47:24;15.60;99.90
51837;DHT22;38941;53.254;6.600;2022-07-24T01:49:25;15.70;99.90
51837;DHT22;38941;53.254;6.600;2022-07-24T01:51:28;15.70;99.90
51837;DHT22;38941;53.254;6.600;2022-07-24T01:53:30;15.60;99.90
51837;DHT22;38941;53.254;6.600;2022-07-24T01:55:31;15.60;99.90
51837;DHT22;38941;53.254;6.600;2022-07-24T01:57:32;15.60;99.90
51837;DHT22;38941;53.254;6.600;2022-07-24T01:59:33;15.60;99.90
51837;DHT22;38941;53.254;6.600;2022-07-24T02:01:35;15.60;99.90
51837;DHT22;38941;53.254;6.600;2022-07-24T02:03:35;15.60;99.90
51837;DHT22;38941;53.254;6.600;2022-07-24T02:05:36;15.60;99.90
51837;DHT22;38941;53.254;6.600;2022-07-24T02:07:37;15.60;99.90
51837;DHT22;38941;53.254;6.600;2022-07-24T02:09:37;15.60;99.90
51837;DHT22;38941;53.254;6.600;2022-07-24T02:11:38;15.50;99.90
51837;DHT22;38941;53.254;6.600;2022-07-24T02:13:39;15.50;99.90
51837;DHT22;38941;53.254;6.600;2022-07-24T02:15:39;15.60;99.90
51837;DHT22;38941;53.254;6.600;2022-07-24T02:17:48;15.60;99.90
51837;DHT22;38941;53.254;6.600;2022-07-24T02:19:49;15.50;99.90
51837;DHT22;38941;53.254;6.600;2022-07-24T02:21:50;15.50;99.90
51837;DHT22;38941;53.254;6.600;2022-07-24T02:23:51;15.50;99.90
51837;DHT22;38941;53.254;6.600;2022-07-24T02:25:51;15.50;99.90
51837;DHT22;38941;53.254;6.600;2022-07-24T02:27:52;15.50;99.90
51837;DHT22;38941;53.254;6.600;2022-07-24T02:29:53;15.50;99.90
51837;DHT22;38941;53.254;6.600;2022-07-24T02:31:53;15.50;99.90
51837;DHT22;38941;53.254;6.600;2022-07-24T02:33:54;15.50;99.90
51837;DHT22;38941;53.254;6.600;2022-07-24T02:35:55;15.50;99.90
51837;DHT22;38941;53.254;6.600;2022-07-24T02:37:56;15.50;99.90
51837;DHT22;38941;53.254;6.600;2022-07-24T02:39:57;15.50;99.90
51837;DHT22;38941;53.254;6.600;2022-07-24T02:41:58;15.50;99.90
51837;DHT22;38941;53.254;6.600;2022-07-24T02:43:58;15.50;99.90
51837;DHT22;38941;53.254;6.600;2022-07-24T02:45:59;15.50;99.90
51837;DHT22;38941;53.254;6.600;2022-07-24T02:48:00;15.50;99.90
51837;DHT22;38941;53.254;6.600;2022-07-24T02:50:01;15.40;99.90
51837;DHT22;38941;53.254;6.600;2022-07-24T02:52:02;15.50;99.90
51837;DHT22;38941;53.254;6.600;2022-07-24T02:54:04;15.50;99.90
51837;DHT22;38941;53.254;6.600;2022-07-24T02:56:05;15.40;99.90
51837;DHT22;38941;53.254;6.600;2022-07-24T02:58:06;15.40;99.90
51837;DHT22;38941;53.254;6.600;2022-07-24T03:00:11;15.40;99.90
51837;DHT22;38941;53.254;6.600;2022-07-24T03:02:12;15.40;99.90
51837;DHT22;38941;53.254;6.600;2022-07-24T03:04:13;15.40;99.90
51837;DHT22;38941;53.254;6.600;2022-07-24T03:06:14;15.40;99.90
51837;DHT22;38941;53.254;6.600;2022-07-24T03:08:14;15.40;99.90
51837;DHT22;38941;53.254;6.600;2022-07-24T03:10:15;15.60;99.90
51837;DHT22;38941;53.254;6.600;2022-07-24T03:12:16;15.40;99.90
51837;DHT22;38941;53.254;6.600;2022-07-24T03:14:17;15.40;99.90
51837;DHT22;38941;53.254;6.600;2022-07-24T03:16:17;15.40;99.90
51837;DHT22;38941;53.254;6.600;2022-07-24T03:18:18;15.40;99.90
51837;DHT22;38941;53.254;6.600;2022-07-24T03:20:20;15.40;99.90
51837;DHT22;38941;53.254;6.600;2022-07-24T03:22:21;15.30;99.90
51837;DHT22;38941;53.254;6.600;2022-07-24T03:24:22;15.30;99.90
51837;DHT22;38941;53.254;6.600;2022-07-24T03:26:22;15.30;99.90
51837;DHT22;38941;53.254;6.600;2022-07-24T03:28:23;15.30;99.90
51837;DHT22;38941;53.254;6.600;2022-07-24T03:30:24;15.40;99.90
51837;DHT22;38941;53.254;6.600;2022-07-24T03:32:24;15.40;99.90
51837;DHT22;38941;53.254;6.600;2022-07-24T03:34:25;15.40;99.90
51837;DHT22;38941;53.254;6.600;2022-07-24T03:36:26;15.40;99.90
51837;DHT22;38941;53.254;6.600;2022-07-24T03:38:27;15.40;99.90
51837;DHT22;38941;53.254;6.600;2022-07-24T03:40:29;15.40;99.90
51837;DHT22;38941;53.254;6.600;2022-07-24T03:42:29;15.40;99.90
51837;DHT22;38941;53.254;6.600;2022-07-24T03:44:30;15.40;99.90
51837;DHT22;38941;53.254;6.600;2022-07-24T03:46:31;15.40;99.90
51837;DHT22;38941;53.254;6.600;2022-07-24T03:48:32;15.40;99.90
51837;DHT22;38941;53.254;6.600;2022-07-24T03:50:32;15.50;99.90
51837;DHT22;38941;53.254;6.600;2022-07-24T03:52:33;15.50;99.90
51837;DHT22;38941;53.254;6.600;2022-07-24T03:54:34;15.50;99.90
51837;DHT22;38941;53.254;6.600;2022-07-24T03:56:34;15.50;99.90
51837;DHT22;38941;53.254;6.600;2022-07-24T03:58:36;15.50;99.90
51837;DHT22;38941;53.254;6.600;2022-07-24T04:00:36;15.50;99.90
51837;DHT22;38941;53.254;6.600;2022-07-24T04:02:39;15.50;99.90
51837;DHT22;38941;53.254;6.600;2022-07-24T04:04:39;15.50;99.90
51837;DHT22;38941;53.254;6.600;2022-07-24T04:06:40;15.50;99.90
51837;DHT22;38941;53.254;6.600;2022-07-24T04:08:41;15.50;99.90
51837;DHT22;38941;53.254;6.600;2022-07-24T04:10:41;15.50;99.90
51837;DHT22;38941;53.254;6.600;2022-07-24T04:12:42;15.50;99.90
51837;DHT22;38941;53.254;6.600;2022-07-24T04:14:43;15.50;99.90
51837;DHT22;38941;53.254;6.600;2022-07-24T04:16:43;15.50;99.90
51837;DHT22;38941;53.254;6.600;2022-07-24T04:18:44;15.50;99.90
51837;DHT22;38941;53.254;6.600;2022-07-24T04:20:45;15.60;99.90
51837;DHT22;38941;53.254;6.600;2022-07-24T04:22:45;15.50;99.90
51837;DHT22;38941;53.254;6.600;2022-07-24T04:24:47;15.50;99.90
51837;DHT22;38941;53.254;6.600;2022-07-24T04:26:48;15.60;99.90
51837;DHT22;38941;53.254;6.600;2022-07-24T04:28:49;15.60;99.90
51837;DHT22;38941;53.254;6.600;2022-07-24T04:30:49;15.60;99.90
51837;DHT22;38941;53.254;6.600;2022-07-24T04:32:50;15.60;99.90
51837;DHT22;38941;53.254;6.600;2022-07-24T04:34:51;15.60;99.90
51837;DHT22;38941;53.254;6.600;2022-07-24T04:36:52;15.60;99.90
51837;DHT22;38941;53.254;6.600;2022-07-24T04:38:52;15.60;99.90
51837;DHT22;38941;53.254;6.600;2022-07-24T04:40:53;15.60;99.90
51837;DHT22;38941;53.254;6.600;2022-07-24T04:42:54;15.60;99.90
51837;DHT22;38941;53.254;6.600;2022-07-24T04:44:54;15.60;99.90
51837;DHT22;38941;53.254;6.600;2022-07-24T04:46:55;15.60;99.90
51837;DHT22;38941;53.254;6.600;2022-07-24T04:48:57;15.70;99.90
51837;DHT22;38941;53.254;6.600;2022-07-24T04:50:57;15.70;99.90
51837;DHT22;38941;53.254;6.600;2022-07-24T04:52:59;15.70;99.90
51837;DHT22;38941;53.254;6.600;2022-07-24T04:55:01;15.70;99.90
51837;DHT22;38941;53.254;6.600;2022-07-24T04:57:03;15.80;99.90
51837;DHT22;38941;53.254;6.600;2022-07-24T04:59:03;15.80;99.90
51837;DHT22;38941;53.254;6.600;2022-07-24T05:01:04;15.80;99.90
51837;DHT22;38941;53.254;6.600;2022-07-24T05:03:06;15.90;99.90
51837;DHT22;38941;53.254;6.600;2022-07-24T05:05:06;15.90;99.90
51837;DHT22;38941;53.254;6.600;2022-07-24T05:07:08;16.00;99.90
51837;DHT22;38941;53.254;6.600;2022-07-24T05:09:10;16.00;99.90
51837;DHT22;38941;53.254;6.600;2022-07-24T05:11:11;16.00;99.90
51837;DHT22;38941;53.254;6.600;2022-07-24T05:13:11;16.10;99.90
51837;DHT22;38941;53.254;6.600;2022-07-24T05:15:12;16.30;99.90
51837;DHT22;38941;53.254;6.600;2022-07-24T05:17:12;16.30;99.90
51837;DHT22;38941;53.254;6.600;2022-07-24T05:19:14;16.40;99.90
51837;DHT22;38941;53.254;6.600;2022-07-24T05:21:15;16.50;99.90
51837;DHT22;38941;53.254;6.600;2022-07-24T05:23:17;16.60;99.90
51837;DHT22;38941;53.254;6.600;2022-07-24T05:25:17;16.60;99.90
51837;DHT22;38941;53.254;6.600;2022-07-24T05:27:18;16.60;99.90
51837;DHT22;38941;53.254;6.600;2022-07-24T05:29:19;16.70;99.90
51837;DHT22;38941;53.254;6.600;2022-07-24T05:31:20;16.70;99.90
51837;DHT22;38941;53.254;6.600;2022-07-24T05:33:20;16.80;99.90
51837;DHT22;38941;53.254;6.600;2022-07-24T05:35:21;16.80;99.90
51837;DHT22;38941;53.254;6.600;2022-07-24T05:37:22;16.90;99.90
51837;DHT22;38941;53.254;6.600;2022-07-24T05:39:23;16.90;99.90
51837;DHT22;38941;53.254;6.600;2022-07-24T05:41:23;17.00;99.90
51837;DHT22;38941;53.254;6.600;2022-07-24T05:43:24;17.00;99.90
51837;DHT22;38941;53.254;6.600;2022-07-24T05:45:25;17.10;99.90
51837;DHT22;38941;53.254;6.600;2022-07-24T05:47:25;17.10;99.90
51837;DHT22;38941;53.254;6.600;2022-07-24T05:49:27;17.20;99.90
51837;DHT22;38941;53.254;6.600;2022-07-24T05:51:28;17.20;99.90
51837;DHT22;38941;53.254;6.600;2022-07-24T05:53:30;17.30;99.90
51837;DHT22;38941;53.254;6.600;2022-07-24T05:55:30;17.40;99.90
51837;DHT22;38941;53.254;6.600;2022-07-24T05:57:31;17.40;99.90
51837;DHT22;38941;53.254;6.600;2022-07-24T05:59:32;17.40;99.90
51837;DHT22;38941;53.254;6.600;2022-07-24T06:01:33;17.50;99.90
51837;DHT22;38941;53.254;6.600;2022-07-24T06:03:33;17.50;99.90
51837;DHT22;38941;53.254;6.600;2022-07-24T06:05:34;17.50;99.90
51837;DHT22;38941;53.254;6.600;2022-07-24T06:07:35;17.50;99.90
51837;DHT22;38941;53.254;6.600;2022-07-24T06:09:36;17.60;99.90
51837;DHT22;38941;53.254;6.600;2022-07-24T06:11:38;17.70;99.90
51837;DHT22;38941;53.254;6.600;2022-07-24T06:13:39;17.80;99.90
51837;DHT22;38941;53.254;6.600;2022-07-24T06:15:39;18.00;99.90
51837;DHT22;38941;53.254;6.600;2022-07-24T06:17:40;18.10;99.90
51837;DHT22;38941;53.254;6.600;2022-07-24T06:19:41;18.20;99.90
51837;DHT22;38941;53.254;6.600;2022-07-24T06:21:42;18.30;99.90
51837;DHT22;38941;53.254;6.600;2022-07-24T06:23:42;18.30;99.90
51837;DHT22;38941;53.254;6.600;2022-07-24T06:25:43;18.30;99.90
51837;DHT22;38941;53.254;6.600;2022-07-24T06:27:47;18.40;99.90
51837;DHT22;38941;53.254;6.600;2022-07-24T06:29:48;18.50;99.90
51837;DHT22;38941;53.254;6.600;2022-07-24T06:31:49;18.60;99.90
51837;DHT22;38941;53.254;6.600;2022-07-24T06:33:49;18.80;99.90
51837;DHT22;38941;53.254;6.600;2022-07-24T06:35:50;18.90;99.90
51837;DHT22;38941;53.254;6.600;2022-07-24T06:37:51;19.10;99.90
51837;DHT22;38941;53.254;6.600;2022-07-24T06:39:52;19.20;99.90
51837;DHT22;38941;53.254;6.600;2022-07-24T06:41:52;19.30;99.70
51837;DHT22;38941;53.254;6.600;2022-07-24T06:43:54;19.40;99.40
51837;DHT22;38941;53.254;6.600;2022-07-24T06:45:55;19.50;99.20
51837;DHT22;38941;53.254;6.600;2022-07-24T06:47:55;19.60;99.00
51837;DHT22;38941;53.254;6.600;2022-07-24T06:49:56;19.70;98.90
51837;DHT22;38941;53.254;6.600;2022-07-24T06:51:57;19.80;98.70
51837;DHT22;38941;53.254;6.600;2022-07-24T06:53:57;19.80;98.60
51837;DHT22;38941;53.254;6.600;2022-07-24T06:55:58;19.90;98.40
51837;DHT22;38941;53.254;6.600;2022-07-24T06:57:59;20.00;98.30
51837;DHT22;38941;53.254;6.600;2022-07-24T06:59:59;20.10;98.20
51837;DHT22;38941;53.254;6.600;2022-07-24T07:02:00;20.20;98.20
51837;DHT22;38941;53.254;6.600;2022-07-24T07:04:01;20.30;98.00
51837;DHT22;38941;53.254;6.600;2022-07-24T07:06:02;20.30;97.80
51837;DHT22;38941;53.254;6.600;2022-07-24T07:08:02;20.40;97.80
51837;DHT22;38941;53.254;6.600;2022-07-24T07:10:04;20.40;97.70
51837;DHT22;38941;53.254;6.600;2022-07-24T07:12:06;20.50;97.50
51837;DHT22;38941;53.254;6.600;2022-07-24T07:14:07;20.60;97.30
51837;DHT22;38941;53.254;6.600;2022-07-24T07:16:08;20.60;97.20
51837;DHT22;38941;53.254;6.600;2022-07-24T07:18:09;20.60;97.20
51837;DHT22;38941;53.254;6.600;2022-07-24T07:20:11;20.70;97.10
51837;DHT22;38941;53.254;6.600;2022-07-24T07:22:13;20.70;97.00
51837;DHT22;38941;53.254;6.600;2022-07-24T07:24:14;20.80;96.90
51837;DHT22;38941;53.254;6.600;2022-07-24T07:26:14;20.80;96.80
51837;DHT22;38941;53.254;6.600;2022-07-24T07:28:16;20.90;96.50
51837;DHT22;38941;53.254;6.600;2022-07-24T07:30:18;20.90;96.30
51837;DHT22;38941;53.254;6.600;2022-07-24T07:32:18;21.00;96.30
51837;DHT22;38941;53.254;6.600;2022-07-24T07:34:19;21.20;96.20
51837;DHT22;38941;53.254;6.600;2022-07-24T07:36:20;21.30;96.00
51837;DHT22;38941;53.254;6.600;2022-07-24T07:38:20;21.50;95.60
51837;DHT22;38941;53.254;6.600;2022-07-24T07:40:21;21.70;95.40
51837;DHT22;38941;53.254;6.600;2022-07-24T07:42:22;21.80;95.00
51837;DHT22;38941;53.254;6.600;2022-07-24T07:44:22;22.00;94.60
51837;DHT22;38941;53.254;6.600;2022-07-24T07:46:23;22.20;93.90
51837;DHT22;38941;53.254;6.600;2022-07-24T07:48:24;22.40;93.60
51837;DHT22;38941;53.254;6.600;2022-07-24T07:50:24;22.60;93.20
51837;DHT22;38941;53.254;6.600;2022-07-24T07:52:26;22.80;92.80
51837;DHT22;38941;53.254;6.600;2022-07-24T07:54:27;22.80;92.50
51837;DHT22;38941;53.254;6.600;2022-07-24T07:56:28;22.80;92.30
51837;DHT22;38941;53.254;6.600;2022-07-24T07:58:31;22.80;92.10
51837;DHT22;38941;53.254;6.600;2022-07-24T08:00:33;22.80;92.00
51837;DHT22;38941;53.254;6.600;2022-07-24T08:02:34;22.70;91.80
51837;DHT22;38941;53.254;6.600;2022-07-24T08:04:35;22.60;91.90
51837;DHT22;38941;53.254;6.600;2022-07-24T08:06:36;22.70;92.10
51837;DHT22;38941;53.254;6.600;2022-07-24T08:08:37;22.80;91.70
51837;DHT22;38941;53.254;6.600;2022-07-24T08:10:38;22.90;91.30
51837;DHT22;38941;53.254;6.600;2022-07-24T08:12:39;23.00;91.10
51837;DHT22;38941;53.254;6.600;2022-07-24T08:14:40;23.10;91.00
51837;DHT22;38941;53.254;6.600;2022-07-24T08:16:40;23.10;90.80
51837;DHT22;38941;53.254;6.600;2022-07-24T08:18:41;23.10;90.60
51837;DHT22;38941;53.254;6.600;2022-07-24T08:20:43;23.00;90.50
51837;DHT22;38941;53.254;6.600;2022-07-24T08:22:44;23.10;90.30
51837;DHT22;38941;53.254;6.600;2022-07-24T08:24:45;23.20;90.30
51837;DHT22;38941;53.254;6.600;2022-07-24T08:26:49;23.30;90.10
51837;DHT22;38941;53.254;6.600;2022-07-24T08:28:50;23.50;89.50
51837;DHT22;38941;53.254;6.600;2022-07-24T08:30:51;23.60;88.80
51837;DHT22;38941;53.254;6.600;2022-07-24T08:32:52;23.80;88.60
51837;DHT22;38941;53.254;6.600;2022-07-24T08:34:54;24.00;87.50
51837;DHT22;38941;53.254;6.600;2022-07-24T08:36:55;24.10;86.70
51837;DHT22;38941;53.254;6.600;2022-07-24T08:38:55;24.10;86.10
51837;DHT22;38941;53.254;6.600;2022-07-24T08:40:56;24.20;85.90
51837;DHT22;38941;53.254;6.600;2022-07-24T08:42:57;24.10;85.40
51837;DHT22;38941;53.254;6.600;2022-07-24T08:44:58;24.10;85.10
51837;DHT22;38941;53.254;6.600;2022-07-24T08:46:59;24.00;85.10
51837;DHT22;38941;53.254;6.600;2022-07-24T08:49:02;23.90;84.60
51837;DHT22;38941;53.254;6.600;2022-07-24T08:51:03;23.80;84.50
51837;DHT22;38941;53.254;6.600;2022-07-24T08:53:05;23.80;84.70
51837;DHT22;38941;53.254;6.600;2022-07-24T08:55:06;23.80;84.30
51837;DHT22;38941;53.254;6.600;2022-07-24T08:57:07;23.80;84.20
51837;DHT22;38941;53.254;6.600;2022-07-24T08:59:21;23.70;84.10
51837;DHT22;38941;53.254;6.600;2022-07-24T09:01:23;23.70;82.50
51837;DHT22;38941;53.254;6.600;2022-07-24T09:03:24;23.70;84.00
51837;DHT22;38941;53.254;6.600;2022-07-24T09:05:24;23.80;84.10
51837;DHT22;38941;53.254;6.600;2022-07-24T09:07:27;23.90;84.00
51837;DHT22;38941;53.254;6.600;2022-07-24T09:09:28;23.90;83.70
51837;DHT22;38941;53.254;6.600;2022-07-24T09:11:29;24.10;83.90
51837;DHT22;38941;53.254;6.600;2022-07-24T09:13:32;24.30;83.80
51837;DHT22;38941;53.254;6.600;2022-07-24T09:15:51;24.30;82.30
51837;DHT22;38941;53.254;6.600;2022-07-24T09:17:54;24.30;82.70
51837;DHT22;38941;53.254;6.600;2022-07-24T09:20:00;24.30;82.80
51837;DHT22;38941;53.254;6.600;2022-07-24T09:22:02;24.20;82.60
51837;DHT22;38941;53.254;6.600;2022-07-24T09:24:18;24.20;83.40
51837;DHT22;38941;53.254;6.600;2022-07-24T09:26:19;24.20;81.90
51837;DHT22;38941;53.254;6.600;2022-07-24T09:28:21;24.50;82.90
51837;DHT22;38941;53.254;6.600;2022-07-24T09:30:27;24.70;81.70
51837;DHT22;38941;53.254;6.600;2022-07-24T09:32:29;24.80;81.50
51837;DHT22;38941;53.254;6.600;2022-07-24T09:34:39;25.10;80.90
51837;DHT22;38941;53.254;6.600;2022-07-24T09:36:40;25.20;79.80
51837;DHT22;38941;53.254;6.600;2022-07-24T09:38:48;25.30;80.60
51837;DHT22;38941;53.254;6.600;2022-07-24T09:40:51;25.50;79.60
51837;DHT22;38941;53.254;6.600;2022-07-24T09:42:55;25.60;79.50
51837;DHT22;38941;53.254;6.600;2022-07-24T09:44:59;25.70;79.40
51837;DHT22;38941;53.254;6.600;2022-07-24T09:47:11;25.70;79.20
51837;DHT22;38941;53.254;6.600;2022-07-24T09:49:18;26.00;78.80
51837;DHT22;38941;53.254;6.600;2022-07-24T09:51:21;26.20;76.60
51837;DHT22;38941;53.254;6.600;2022-07-24T09:53:28;26.30;77.30
51837;DHT22;38941;53.254;6.600;2022-07-24T09:55:29;26.40;77.00
51837;DHT22;38941;53.254;6.600;2022-07-24T09:57:31;26.40;77.10
51837;DHT22;38941;53.254;6.600;2022-07-24T09:59:35;26.40;76.70
51837;DHT22;38941;53.254;6.600;2022-07-24T10:01:38;26.60;76.70
51837;DHT22;38941;53.254;6.600;2022-07-24T10:03:44;26.70;76.40
51837;DHT22;38941;53.254;6.600;2022-07-24T10:05:46;26.90;76.10
51837;DHT22;38941;53.254;6.600;2022-07-24T10:07:48;27.10;74.70
51837;DHT22;38941;53.254;6.600;2022-07-24T10:09:55;27.00;73.70
51837;DHT22;38941;53.254;6.600;2022-07-24T10:11:57;27.00;72.40
51837;DHT22;38941;53.254;6.600;2022-07-24T10:13:59;26.90;74.10
51837;DHT22;38941;53.254;6.600;2022-07-24T10:18:16;26.80;73.20
51837;DHT22;38941;53.254;6.600;2022-07-24T10:20:34;26.90;74.40
51837;DHT22;38941;53.254;6.600;2022-07-24T10:23:38;27.10;73.10
51837;DHT22;38941;53.254;6.600;2022-07-24T10:25:15;27.20;71.60
51837;DHT22;38941;53.254;6.600;2022-07-24T10:29:33;27.10;70.30
51837;DHT22;38941;53.254;6.600;2022-07-24T10:31:43;27.10;71.90
51837;DHT22;38941;53.254;6.600;2022-07-24T10:33:51;27.10;72.00
51837;DHT22;38941;53.254;6.600;2022-07-24T10:35:55;27.10;70.70
51837;DHT22;38941;53.254;6.600;2022-07-24T10:38:10;27.00;71.50
51837;DHT22;38941;53.254;6.600;2022-07-24T10:42:23;27.20;70.10
51837;DHT22;38941;53.254;6.600;2022-07-24T10:44:24;27.30;70.90
51837;DHT22;38941;53.254;6.600;2022-07-24T10:46:25;27.30;70.20
51837;DHT22;38941;53.254;6.600;2022-07-24T10:48:28;27.20;70.10
51837;DHT22;38941;53.254;6.600;2022-07-24T10:53:20;27.00;67.20
51837;DHT22;38941;53.254;6.600;2022-07-24T10:59:56;27.50;65.60
51837;DHT22;38941;53.254;6.600;2022-07-24T11:01:56;27.60;67.20
51837;DHT22;38941;53.254;6.600;2022-07-24T11:03:58;27.60;66.70
51837;DHT22;38941;53.254;6.600;2022-07-24T11:10:50;27.50;65.00
51837;DHT22;38941;53.254;6.600;2022-07-24T11:12:51;27.40;64.70
51837;DHT22;38941;53.254;6.600;2022-07-24T11:14:58;27.50;67.10
51837;DHT22;38941;53.254;6.600;2022-07-24T11:17:44;27.60;66.50
51837;DHT22;38941;53.254;6.600;2022-07-24T11:19:47;27.60;66.10
51837;DHT22;38941;53.254;6.600;2022-07-24T11:22:01;27.60;65.80
51837;DHT22;38941;53.254;6.600;2022-07-24T11:28:35;27.90;64.70
51837;DHT22;38941;53.254;6.600;2022-07-24T11:30:42;28.00;65.10
51837;DHT22;38941;53.254;6.600;2022-07-24T11:32:44;28.10;65.50
51837;DHT22;38941;53.254;6.600;2022-07-24T11:34:49;28.40;65.20
51837;DHT22;38941;53.254;6.600;2022-07-24T11:36:51;28.50;64.60
51837;DHT22;38941;53.254;6.600;2022-07-24T11:38:52;28.50;64.70
51837;DHT22;38941;53.254;6.600;2022-07-24T11:41:05;28.70;64.20
51837;DHT22;38941;53.254;6.600;2022-07-24T11:43:07;28.60;60.30
51837;DHT22;38941;53.254;6.600;2022-07-24T11:45:09;28.50;62.70
51837;DHT22;38941;53.254;6.600;2022-07-24T11:47:19;28.50;62.60
51837;DHT22;38941;53.254;6.600;2022-07-24T11:49:20;28.50;61.40
51837;DHT22;38941;53.254;6.600;2022-07-24T11:51:22;28.60;61.30
51837;DHT22;38941;53.254;6.600;2022-07-24T11:53:23;28.90;60.80
51837;DHT22;38941;53.254;6.600;2022-07-24T11:55:24;29.30;60.50
51837;DHT22;38941;53.254;6.600;2022-07-24T11:57:32;29.20;59.20
51837;DHT22;38941;53.254;6.600;2022-07-24T11:59:33;29.30;59.30
51837;DHT22;38941;53.254;6.600;2022-07-24T12:01:34;29.40;58.30
51837;DHT22;38941;53.254;6.600;2022-07-24T12:03:35;29.30;57.50
51837;DHT22;38941;53.254;6.600;2022-07-24T12:05:38;29.00;56.70
51837;DHT22;38941;53.254;6.600;2022-07-24T12:07:40;28.80;58.20
51837;DHT22;38941;53.254;6.600;2022-07-24T12:09:50;28.70;58.40
51837;DHT22;38941;53.254;6.600;2022-07-24T12:11:52;28.90;57.80
51837;DHT22;38941;53.254;6.600;2022-07-24T12:13:53;28.70;57.60
51837;DHT22;38941;53.254;6.600;2022-07-24T12:15:55;28.70;57.80
51837;DHT22;38941;53.254;6.600;2022-07-24T12:20:01;28.90;57.70
51837;DHT22;38941;53.254;6.600;2022-07-24T12:22:05;29.10;58.20
51837;DHT22;38941;53.254;6.600;2022-07-24T12:24:06;29.20;57.90
51837;DHT22;38941;53.254;6.600;2022-07-24T12:26:07;29.40;57.70
51837;DHT22;38941;53.254;6.600;2022-07-24T12:28:16;29.70;58.10
51837;DHT22;38941;53.254;6.600;2022-07-24T12:30:26;29.80;57.30
51837;DHT22;38941;53.254;6.600;2022-07-24T12:32:29;29.90;57.60
51837;DHT22;38941;53.254;6.600;2022-07-24T12:34:45;30.10;57.60
51837;DHT22;38941;53.254;6.600;2022-07-24T12:36:47;30.10;56.10
51837;DHT22;38941;53.254;6.600;2022-07-24T12:38:53;29.90;56.90
51837;DHT22;38941;53.254;6.600;2022-07-24T12:41:15;29.90;56.30
51837;DHT22;38941;53.254;6.600;2022-07-24T12:43:18;30.00;54.40
51837;DHT22;38941;53.254;6.600;2022-07-24T12:45:20;30.00;55.50
51837;DHT22;38941;53.254;6.600;2022-07-24T12:47:21;30.10;55.40
51837;DHT22;38941;53.254;6.600;2022-07-24T12:49:42;30.20;55.20
51837;DHT22;38941;53.254;6.600;2022-07-24T12:51:52;30.40;53.30
51837;DHT22;38941;53.254;6.600;2022-07-24T12:53:56;30.30;53.60
51837;DHT22;38941;53.254;6.600;2022-07-24T12:58:12;30.30;52.20
51837;DHT22;38941;53.254;6.600;2022-07-24T13:00:13;30.20;53.30
51837;DHT22;38941;53.254;6.600;2022-07-24T13:02:23;30.20;53.30
51837;DHT22;38941;53.254;6.600;2022-07-24T13:04:26;30.10;52.70
51837;DHT22;38941;53.254;6.600;2022-07-24T13:06:38;30.30;54.00
51837;DHT22;38941;53.254;6.600;2022-07-24T13:08:39;30.30;54.10
51837;DHT22;38941;53.254;6.600;2022-07-24T13:10:39;30.50;54.20
51837;DHT22;38941;53.254;6.600;2022-07-24T13:12:40;30.50;54.00
51837;DHT22;38941;53.254;6.600;2022-07-24T13:14:42;30.30;53.60
51837;DHT22;38941;53.254;6.600;2022-07-24T13:16:46;30.00;53.10
51837;DHT22;38941;53.254;6.600;2022-07-24T13:18:48;30.00;53.60